Lancaster Airport Lancaster US
ICAO: KLNS
IATA: LNS
Category: Medium
Scheduled Services: Yes

Elevation: 403 ft
TransAlt. 18000 ft.

Airport Communications:
HARRISBURG APP/DEP:126.45
ATIS:125.675
CTAF:120.9
GND:121.8
WILLIAMSPORT RDO:117.3
TWR:120.9
UNICOM:122.95

KLNS Zoom In..

If you have problems with the map follow the link
https://www.worldairports.se/pages/airport.php?
ICAO=KLNS

Runways:

(A) RW 08 length 6933 ft width 150 ft
ILS 108.70 / hdg 77

(B) RW 13 length 4102 ft width 100 ft
---- / hdg 128

(C) RW 26 length 6933 ft width 150 ft
---- / hdg 257

(D) RW 31 length 4102 ft width 100 ft
---- / hdg 308

Location; KLNS
Day. 14 / Time. 17.39 Zulu
* Altimeter: 29.26
* Temperature: 09° c. 48.2°f.
* Wind from: 260° Speed 09 kn.
Dewpoint: 08° c.
Visibility: 1/2 Statute Miles.
Conditions: Rain.Conditions: Fog.

KLNS 141739Z 26009KT 1/2SM RA FG VV003 09/08 A2926 RMK AO2 P0004 T00940078


Wind From 260°
Speed 09 kn.

 
 
jpsmedia worldairports.se 2019   terms of use